Time;durP1;ratioP1;P1;durP2;ratioP2;P2;SDS_P1;SDS_P2;PMS_P1;PMS_P2;Temp;Humidity;BMP_temperature;BMP_pressure;BME280_temperature;BME280_humidity;BME280_pressure;Samples;Min_cycle;Max_cycle;Signal;HPM_P1;HPM_P2
2022/01/12 00:02:22;;;;;;;13.40;13.00;;;19.00;55.00;;;;;;5033461;28;20452;-52
2022/01/12 00:04:49;;;;;;;13.13;12.70;;;19.00;55.10;;;;;;5043781;28;20489;-53
2022/01/12 00:07:15;;;;;;;13.50;13.00;;;18.90;55.20;;;;;;5053416;28;20463;-49
2022/01/12 00:09:42;;;;;;;13.83;13.13;;;18.80;55.30;;;;;;5053296;28;20448;-50
2022/01/12 00:12:10;;;;;;;13.30;12.80;;;18.80;55.60;;;;;;5053191;28;20864;-52
2022/01/12 00:14:36;;;;;;;13.77;13.17;;;18.70;56.00;;;;;;5044587;28;20877;-54
2022/01/12 00:17:05;;;;;;;14.23;13.63;;;18.60;56.30;;;;;;5033226;28;20805;-49
2022/01/12 00:19:31;;;;;;;14.10;13.50;;;18.50;56.50;;;;;;5033313;28;20844;-49
2022/01/12 00:21:58;;;;;;;13.67;13.17;;;18.50;56.80;;;;;;5033256;28;20957;-50
2022/01/12 00:24:40;;;;;;;14.27;13.67;;;18.40;57.00;;;;;;5039681;28;20447;-51
2022/01/12 00:35:25;;;;;;;13.80;13.30;;;18.10;57.90;;;;;;5038199;28;20452;-53
2022/01/12 00:37:52;;;;;;;14.17;13.60;;;18.10;58.10;;;;;;5033209;28;20469;-51
2022/01/12 00:40:18;;;;;;;13.90;13.40;;;18.10;58.30;;;;;;5032937;28;20477;-50
2022/01/12 00:42:45;;;;;;;13.40;12.90;;;18.00;58.30;;;;;;5032690;28;20456;-51
2022/01/12 00:45:12;;;;;;;14.50;13.90;;;17.90;58.40;;;;;;5045410;28;20472;-56
2022/01/12 00:47:40;;;;;;;13.77;13.17;;;17.90;58.60;;;;;;5052498;28;20472;-53
2022/01/12 00:50:08;;;;;;;14.37;13.77;;;17.90;58.70;;;;;;5052593;28;20494;-52
2022/01/12 00:52:35;;;;;;;13.43;12.93;;;17.90;58.80;;;;;;5052438;28;20448;-51
2022/01/12 00:55:01;;;;;;;13.80;13.30;;;17.80;59.00;;;;;;5041299;28;20448;-51
2022/01/12 00:57:28;;;;;;;14.10;13.60;;;17.80;59.10;;;;;;5032418;28;20468;-52
2022/01/12 00:59:55;;;;;;;13.90;13.30;;;17.80;59.40;;;;;;5032469;28;20535;-53
2022/01/12 01:02:21;;;;;;;13.80;13.37;;;17.80;59.50;;;;;;5032264;28;20923;-52
2022/01/12 01:04:49;;;;;;;14.17;13.47;;;17.80;59.60;;;;;;5041025;28;20448;-52
2022/01/12 01:07:17;;;;;;;13.60;13.10;;;17.70;59.60;;;;;;5052272;28;20751;-56
2022/01/12 01:09:54;;;;;;;13.90;13.40;;;17.70;59.70;;;;;;5052261;28;20940;-51
2022/01/12 01:12:21;;;;;;;13.80;13.30;;;17.60;59.90;;;;;;5052002;28;20547;-55
2022/01/12 01:15:00;;;;;;;13.83;13.27;;;17.60;60.20;;;;;;5043206;28;20449;-56
2022/01/12 01:25:44;;;;;;;13.70;13.20;;;17.40;61.60;;;;;;5047807;28;20525;-52
2022/01/12 01:28:12;;;;;;;14.17;13.57;;;17.40;61.80;;;;;;5051905;28;20521;-52
2022/01/12 01:30:40;;;;;;;13.37;12.87;;;17.40;62.10;;;;;;5051884;28;20448;-54
2022/01/12 01:33:09;;;;;;;13.70;13.10;;;17.30;62.30;;;;;;5051711;28;20452;-52
2022/01/12 01:35:49;;;;;;;13.60;13.10;;;17.30;62.50;;;;;;5049579;28;20475;-54
2022/01/12 01:38:16;;;;;;;13.83;13.33;;;17.30;62.80;;;;;;5051857;28;20464;-51
2022/01/12 01:40:43;;;;;;;14.03;13.53;;;17.30;63.00;;;;;;5051725;28;20819;-51
2022/01/12 01:43:19;;;;;;;13.77;13.27;;;17.30;63.20;;;;;;5051600;28;20440;-54
2022/01/12 01:54:03;;;;;;;12.97;12.47;;;17.20;64.70;;;;;;5046571;28;20458;-52
2022/01/12 01:56:30;;;;;;;13.40;12.90;;;17.20;64.90;;;;;;5051498;28;20444;-51
2022/01/12 01:58:57;;;;;;;14.47;13.50;;;17.20;65.10;;;;;;5051345;28;20848;-51
2022/01/12 02:01:24;;;;;;;13.30;12.90;;;17.10;65.20;;;;;;5051668;28;20821;-53
2022/01/12 02:03:53;;;;;;;12.73;12.23;;;17.10;65.60;;;;;;5044941;28;20452;-53
2022/01/12 02:06:21;;;;;;;13.70;13.00;;;17.10;65.80;;;;;;5050859;28;20886;-53
2022/01/12 02:08:48;;;;;;;13.57;13.10;;;17.10;66.00;;;;;;5051284;28;20464;-53
2022/01/12 02:11:14;;;;;;;13.20;12.77;;;17.10;66.00;;;;;;5051429;28;20459;-50
2022/01/12 02:13:41;;;;;;;13.30;12.80;;;17.10;66.40;;;;;;5035342;28;20442;-54
2022/01/12 02:16:08;;;;;;;13.00;12.60;;;17.00;66.40;;;;;;5034439;28;20449;-50
2022/01/12 02:19:03;;;;;;;14.20;13.70;;;17.00;66.80;;;;;;5035440;28;20518;-51
2022/01/12 02:40:48;;;;;;;13.93;13.43;;;16.90;67.90;;;;;;5035158;28;20498;-52
2022/01/12 02:43:18;;;;;;;13.27;12.87;;;16.90;68.30;;;;;;5045699;28;20455;-50
2022/01/12 02:51:28;;;;;;;13.70;13.10;;;17.00;68.30;;;;;;5055070;28;20424;-55
2022/01/12 02:53:55;;;;;;;12.90;12.50;;;17.00;68.40;;;;;;5038509;28;20531;-49
2022/01/12 02:56:23;;;;;;;14.27;13.47;;;16.90;68.70;;;;;;5034921;28;20449;-52
2022/01/12 02:58:51;;;;;;;13.70;13.20;;;16.90;68.80;;;;;;5034663;28;20473;-50
2022/01/12 03:01:52;;;;;;;12.90;12.40;;;16.90;69.00;;;;;;5034907;28;20452;-52
2022/01/12 03:04:19;;;;;;;13.40;12.90;;;16.90;69.10;;;;;;5053864;28;20459;-54
2022/01/12 03:06:46;;;;;;;13.23;12.73;;;16.90;69.30;;;;;;5054525;28;20451;-49
2022/01/12 03:09:14;;;;;;;14.10;13.50;;;16.90;69.50;;;;;;5054581;28;20987;-50
2022/01/12 03:11:41;;;;;;;13.27;12.77;;;16.80;69.60;;;;;;5054323;28;20435;-51
2022/01/12 03:14:09;;;;;;;13.37;12.87;;;16.80;69.80;;;;;;5036547;28;20452;-53
2022/01/12 03:16:36;;;;;;;13.33;12.83;;;16.90;69.80;;;;;;5034545;28;20449;-51
2022/01/12 03:19:04;;;;;;;13.03;12.40;;;16.90;69.80;;;;;;5034459;28;20492;-51
2022/01/12 03:21:33;;;;;;;13.33;12.83;;;16.90;69.80;;;;;;5034322;28;20445;-51
2022/01/12 03:24:01;;;;;;;13.33;12.80;;;16.90;69.80;;;;;;5050391;28;20452;-52
2022/01/12 03:26:33;;;;;;;13.70;13.10;;;16.80;69.90;;;;;;5054110;28;20502;-50
2022/01/12 03:29:00;;;;;;;13.03;12.63;;;16.90;70.00;;;;;;5054210;28;20482;-50
2022/01/12 03:31:31;;;;;;;13.43;12.93;;;16.80;70.10;;;;;;5054033;28;20815;-53
2022/01/12 03:34:06;;;;;;;13.90;13.40;;;16.80;70.40;;;;;;5038124;28;20445;-54
2022/01/12 03:37:04;;;;;;;13.50;13.00;;;16.80;70.40;;;;;;5034361;28;20812;-52
2022/01/12 03:39:31;;;;;;;13.30;12.90;;;16.80;70.70;;;;;;5034117;28;20493;-54
2022/01/12 03:41:59;;;;;;;13.10;12.60;;;16.70;70.70;;;;;;5033947;28;20452;-50
2022/01/12 03:44:26;;;;;;;14.00;13.40;;;16.80;71.10;;;;;;5053328;28;20449;-51
2022/01/12 03:46:54;;;;;;;12.70;12.30;;;16.70;71.30;;;;;;5053576;28;20973;-50
2022/01/12 03:49:22;;;;;;;14.00;13.60;;;16.70;71.80;;;;;;5053800;28;20514;-50
2022/01/12 03:51:49;;;;;;;13.50;13.00;;;16.70;72.10;;;;;;5053687;28;20436;-52
2022/01/12 03:54:17;;;;;;;13.17;12.67;;;16.60;72.30;;;;;;5035795;28;20449;-50
2022/01/12 03:56:44;;;;;;;14.47;13.97;;;16.60;72.70;;;;;;5033839;28;20806;-53
2022/01/12 03:59:12;;;;;;;13.43;12.93;;;16.60;72.80;;;;;;5033628;28;20465;-51
2022/01/12 04:01:39;;;;;;;13.90;13.40;;;16.60;73.00;;;;;;5043089;28;20471;-52
2022/01/12 04:04:09;;;;;;;14.40;13.80;;;16.70;73.40;;;;;;5053471;28;20451;-51
2022/01/12 04:09:20;;;;;;;13.67;13.17;;;16.60;73.50;;;;;;5053633;28;20416;-53
2022/01/12 04:11:47;;;;;;;13.97;13.47;;;16.60;73.80;;;;;;5052513;28;20448;-52
2022/01/12 04:14:15;;;;;;;13.20;12.80;;;16.60;73.90;;;;;;5053324;28;20815;-52
2022/01/12 04:16:42;;;;;;;13.80;13.30;;;16.60;73.90;;;;;;5053248;28;20451;-53
2022/01/12 04:19:08;;;;;;;14.10;13.60;;;16.60;74.20;;;;;;5053202;28;20467;-52
2022/01/12 04:21:42;;;;;;;14.03;13.53;;;16.60;74.70;;;;;;5044095;28;20965;-50
2022/01/12 04:24:08;;;;;;;13.83;13.43;;;16.70;75.00;;;;;;5033348;28;20507;-50
2022/01/12 04:26:35;;;;;;;13.43;12.97;;;16.70;75.30;;;;;;5033383;28;20445;-54
2022/01/12 04:29:02;;;;;;;13.60;13.17;;;16.70;75.50;;;;;;5033167;28;20466;-55
2022/01/12 04:31:30;;;;;;;14.13;13.63;;;16.60;75.60;;;;;;5035378;28;20444;-50
2022/01/12 04:33:57;;;;;;;13.47;13.07;;;16.60;76.00;;;;;;5033107;28;20468;-51
2022/01/12 04:36:23;;;;;;;13.53;13.10;;;16.60;76.30;;;;;;5032992;28;20449;-54
2022/01/12 04:38:50;;;;;;;13.93;13.43;;;16.60;76.60;;;;;;5032347;28;20476;-54
2022/01/12 04:41:17;;;;;;;13.83;13.40;;;16.60;76.80;;;;;;5041031;28;20479;-51
2022/01/12 04:43:45;;;;;;;13.97;13.47;;;16.60;76.90;;;;;;5052773;28;20480;-52
2022/01/12 04:46:32;;;;;;;14.43;13.83;;;16.70;76.90;;;;;;5052874;28;20847;-52
2022/01/12 04:49:25;;;;;;;13.83;13.33;;;16.70;77.00;;;;;;5052518;28;20476;-52
2022/01/12 04:51:52;;;;;;;13.90;13.40;;;16.70;77.00;;;;;;5036667;28;20453;-54
2022/01/12 04:54:19;;;;;;;14.43;14.00;;;16.70;76.90;;;;;;5032741;28;20448;-54
2022/01/12 04:56:46;;;;;;;13.70;13.20;;;16.70;77.10;;;;;;5032532;28;20950;-52
2022/01/12 04:59:12;;;;;;;14.03;13.53;;;16.70;77.00;;;;;;5032541;28;20484;-52
2022/01/12 05:01:48;;;;;;;13.87;13.37;;;16.60;77.00;;;;;;5045726;28;20490;-56
2022/01/12 05:07:24;;;;;;;14.20;13.80;;;16.60;77.60;;;;;;5052473;28;20428;-51
2022/01/12 05:12:46;;;;;;;15.60;14.23;;;16.60;77.60;;;;;;5050737;28;20440;-53
2022/01/12 05:12:53;;;;;;;17.60;15.03;;;16.60;97.80;;;;;;5031975;28;20435;-51
2022/01/12 05:15:27;;;;;;;19.07;15.37;;;16.70;99.90;;;;;;5032241;28;20934;-51
2022/01/12 05:17:54;;;;;;;17.70;12.97;;;16.80;99.90;;;;;;5032223;28;20471;-53
2022/01/12 05:20:23;;;;;;;18.53;9.50;;;16.90;99.90;;;;;;5036828;28;20834;-54
2022/01/12 05:22:50;;;;;;;23.03;9.80;;;17.00;99.90;;;;;;5051377;28;20452;-54
2022/01/12 05:25:18;;;;;;;20.07;8.83;;;17.00;99.90;;;;;;5052197;28;20447;-50
2022/01/12 05:27:45;;;;;;;25.00;8.23;;;17.10;99.90;;;;;;5051876;28;20468;-51
2022/01/12 05:30:13;;;;;;;29.73;9.67;;;17.20;99.90;;;;;;5048197;28;20445;-55
2022/01/12 05:32:40;;;;;;;23.03;9.53;;;17.30;99.90;;;;;;5031764;28;20469;-59
2022/01/12 05:35:09;;;;;;;20.70;9.00;;;17.30;99.90;;;;;;5031986;28;20448;-55
2022/01/12 05:37:37;;;;;;;15.03;7.40;;;17.20;99.90;;;;;;5031955;28;20469;-53
2022/01/12 05:40:05;;;;;;;13.60;8.77;;;17.10;99.90;;;;;;5033562;28;20477;-56
2022/01/12 05:42:32;;;;;;;29.67;8.80;;;17.10;99.90;;;;;;5044622;28;20814;-58
2022/01/12 05:44:59;;;;;;;11.90;8.10;;;17.10;99.90;;;;;;5031904;28;20453;-51
2022/01/12 05:49:33;;;;;;;17.17;10.17;;;16.90;99.90;;;;;;5031671;28;20480;-53
2022/01/12 05:50:25;;;;;;;17.13;10.50;;;16.90;99.90;;;;;;5030646;28;20452;-52
2022/01/12 05:52:53;;;;;;;19.13;11.67;;;17.40;99.90;;;;;;5031569;28;20441;-53
2022/01/12 05:55:20;;;;;;;12.77;11.60;;;18.10;99.90;;;;;;5031637;28;20449;-54
2022/01/12 05:57:48;;;;;;;15.77;13.70;;;18.50;99.90;;;;;;5031602;28;20472;-53
2022/01/12 06:00:17;;;;;;;18.73;13.90;;;18.80;99.90;;;;;;5031499;28;20488;-54
2022/01/12 06:02:43;;;;;;;17.07;15.50;;;19.10;99.90;;;;;;5031325;28;20794;-57
2022/01/12 06:05:11;;;;;;;15.60;14.10;;;19.20;99.90;;;;;;5031519;28;20456;-53
2022/01/12 06:07:38;;;;;;;17.27;15.10;;;19.40;99.90;;;;;;5031578;28;20838;-56
2022/01/12 06:10:06;;;;;;;16.23;15.13;;;19.50;99.90;;;;;;5031387;28;20452;-56
2022/01/12 06:12:33;;;;;;;19.07;17.33;;;19.60;99.90;;;;;;5031212;28;20453;-56
2022/01/12 06:15:00;;;;;;;17.77;16.37;;;19.60;99.90;;;;;;5031467;28;20441;-55
2022/01/12 06:17:26;;;;;;;16.80;15.50;;;19.70;99.90;;;;;;5031524;28;20461;-55
2022/01/12 06:19:53;;;;;;;16.00;14.83;;;19.70;99.90;;;;;;5031266;28;20449;-54
2022/01/12 06:22:20;;;;;;;18.43;16.73;;;19.70;99.90;;;;;;5031139;28;20456;-51
2022/01/12 06:24:46;;;;;;;17.10;15.80;;;19.70;99.90;;;;;;5031341;28;20449;-51
2022/01/12 06:27:17;;;;;;;18.80;17.30;;;19.80;99.90;;;;;;5031277;28;20449;-58
2022/01/12 06:29:50;;;;;;;17.60;16.30;;;19.80;99.90;;;;;;5031319;28;20881;-55
2022/01/12 06:32:17;;;;;;;16.83;15.70;;;19.80;99.90;;;;;;5031252;28;20457;-52
2022/01/12 06:34:45;;;;;;;16.50;15.50;;;19.80;99.90;;;;;;5031338;28;20528;-52
2022/01/12 06:37:12;;;;;;;17.47;16.00;;;19.80;99.90;;;;;;5031142;28;20506;-52
2022/01/12 06:39:39;;;;;;;18.50;17.00;;;19.80;99.90;;;;;;5031279;28;20456;-52
2022/01/12 06:42:07;;;;;;;18.20;16.60;;;19.80;99.90;;;;;;5030944;28;20519;-58
2022/01/12 06:44:35;;;;;;;17.77;16.67;;;19.80;99.90;;;;;;5031268;28;20452;-59
2022/01/12 06:47:03;;;;;;;16.30;15.40;;;19.80;99.90;;;;;;5031034;28;20461;-56
2022/01/12 06:49:30;;;;;;;18.00;16.83;;;19.70;99.90;;;;;;5031182;28;20449;-53
2022/01/12 06:51:59;;;;;;;16.60;15.60;;;19.80;99.90;;;;;;5030945;28;20453;-55
2022/01/12 06:54:27;;;;;;;16.83;15.80;;;19.80;99.90;;;;;;5031168;28;20452;-53
2022/01/12 06:56:54;;;;;;;17.50;16.17;;;19.80;99.90;;;;;;5031151;28;20452;-56
2022/01/12 06:59:20;;;;;;;16.13;15.13;;;19.70;99.70;;;;;;5031124;28;20464;-55
2022/01/12 07:01:48;;;;;;;15.30;14.60;;;19.70;99.30;;;;;;5032931;28;20488;-55
2022/01/12 07:04:15;;;;;;;18.80;17.30;;;19.70;98.90;;;;;;5034672;28;20451;-53
2022/01/12 07:06:42;;;;;;;17.10;16.23;;;19.60;98.50;;;;;;5034558;28;20456;-51
2022/01/12 07:09:09;;;;;;;16.27;15.47;;;19.60;98.10;;;;;;5034479;28;20465;-51
2022/01/12 07:11:35;;;;;;;16.87;15.97;;;19.60;97.80;;;;;;5034549;28;20449;-51
2022/01/12 07:14:02;;;;;;;16.20;15.40;;;19.60;97.30;;;;;;5034686;28;20801;-53
2022/01/12 07:16:29;;;;;;;14.63;13.93;;;19.50;97.10;;;;;;5034485;28;20449;-51
2022/01/12 07:18:59;;;;;;;15.20;14.50;;;19.50;96.90;;;;;;5034430;28;20989;-54
2022/01/12 07:21:26;;;;;;;14.90;14.10;;;19.50;96.60;;;;;;5034332;28;20480;-53
2022/01/12 07:23:54;;;;;;;15.40;14.70;;;19.40;96.30;;;;;;5034242;28;20459;-51
2022/01/12 07:26:21;;;;;;;13.57;12.80;;;19.40;96.00;;;;;;5034274;28;20536;-52
2022/01/12 07:28:48;;;;;;;14.50;13.63;;;19.40;95.90;;;;;;5034287;28;20465;-51
2022/01/12 07:31:15;;;;;;;14.97;14.27;;;19.40;95.60;;;;;;5034269;28;20449;-53
2022/01/12 07:33:41;;;;;;;14.77;13.87;;;19.30;95.30;;;;;;5034077;28;20453;-55
2022/01/12 07:36:09;;;;;;;12.77;12.10;;;19.30;95.10;;;;;;5034086;28;20954;-53
2022/01/12 07:38:36;;;;;;;13.07;12.40;;;19.20;94.90;;;;;;5034136;28;20464;-54
2022/01/12 07:41:03;;;;;;;13.30;12.47;;;19.20;94.70;;;;;;5033949;28;20488;-57
2022/01/12 07:43:30;;;;;;;13.17;12.57;;;19.20;94.50;;;;;;5033871;28;20961;-56
2022/01/12 07:45:56;;;;;;;15.00;14.00;;;19.10;94.30;;;;;;5034197;28;20845;-54
2022/01/12 07:48:23;;;;;;;14.73;13.80;;;19.10;94.10;;;;;;5034293;28;20479;-53
2022/01/12 07:50:50;;;;;;;13.67;12.93;;;19.10;94.00;;;;;;5033852;28;20532;-51
2022/01/12 07:53:18;;;;;;;14.00;13.23;;;19.00;93.80;;;;;;5033684;28;20460;-54
2022/01/12 07:55:45;;;;;;;15.00;14.17;;;19.00;93.70;;;;;;5033890;28;20460;-56
2022/01/12 07:58:11;;;;;;;13.00;12.50;;;19.00;93.50;;;;;;5033761;28;20469;-54
2022/01/12 08:00:38;;;;;;;14.03;13.33;;;18.90;93.40;;;;;;5033688;28;20481;-51
2022/01/12 08:03:05;;;;;;;13.90;13.30;;;18.90;93.20;;;;;;5033514;28;20460;-54
2022/01/12 08:05:32;;;;;;;14.53;13.63;;;18.90;93.10;;;;;;5033626;28;20453;-55
2022/01/12 08:07:59;;;;;;;14.90;14.00;;;18.80;92.90;;;;;;5033562;28;20846;-55
2022/01/12 08:10:27;;;;;;;13.47;12.77;;;18.80;92.80;;;;;;5033651;28;20543;-54
2022/01/12 08:12:53;;;;;;;14.17;13.53;;;18.70;92.60;;;;;;5032543;28;20457;-54
2022/01/12 08:15:20;;;;;;;14.13;13.43;;;18.70;92.50;;;;;;5033387;28;20453;-56
2022/01/12 08:17:47;;;;;;;13.67;13.17;;;18.60;92.40;;;;;;5033395;28;20473;-52
2022/01/12 08:20:17;;;;;;;14.83;14.20;;;18.60;92.40;;;;;;5033192;28;20456;-57
2022/01/12 08:22:44;;;;;;;15.47;14.87;;;18.60;92.30;;;;;;5033224;28;20498;-58
2022/01/12 08:25:11;;;;;;;16.37;15.67;;;18.50;92.10;;;;;;5033260;28;20445;-57
2022/01/12 08:27:39;;;;;;;16.10;15.40;;;18.50;92.10;;;;;;5033104;28;20473;-58
2022/01/12 08:30:16;;;;;;;15.40;14.80;;;18.50;92.00;;;;;;5033189;28;20959;-57
2022/01/12 08:32:43;;;;;;;15.60;15.00;;;18.40;91.90;;;;;;5032856;28;20904;-58
2022/01/12 08:35:10;;;;;;;16.10;15.60;;;18.40;91.70;;;;;;5033019;28;20954;-56
2022/01/12 08:37:37;;;;;;;15.60;15.00;;;18.40;91.60;;;;;;5033033;28;20473;-54
2022/01/12 08:40:05;;;;;;;15.73;14.93;;;18.40;91.60;;;;;;5032979;28;20452;-53
2022/01/12 08:42:32;;;;;;;16.47;15.77;;;18.30;91.40;;;;;;5032840;28;20489;-56
2022/01/12 08:45:02;;;;;;;16.50;15.80;;;18.30;91.40;;;;;;5032981;28;20452;-57
2022/01/12 08:47:28;;;;;;;15.70;15.10;;;18.30;91.40;;;;;;5032576;28;20476;-57
2022/01/12 08:49:55;;;;;;;16.07;15.37;;;18.20;91.40;;;;;;5032826;28;20518;-57
2022/01/12 08:52:22;;;;;;;16.03;15.43;;;18.20;91.50;;;;;;5032620;28;20840;-55
2022/01/12 08:54:49;;;;;;;14.30;13.80;;;18.10;91.50;;;;;;5032723;28;20449;-56
2022/01/12 08:57:16;;;;;;;13.90;13.30;;;18.10;91.50;;;;;;5032722;28;20476;-52
2022/01/12 08:59:44;;;;;;;14.50;13.90;;;18.00;91.50;;;;;;5032623;28;20842;-57
2022/01/12 09:02:14;;;;;;;14.33;13.63;;;18.00;91.60;;;;;;5032209;28;20476;-58
2022/01/12 09:04:41;;;;;;;14.07;13.47;;;18.00;91.60;;;;;;5032631;28;20441;-57
2022/01/12 09:07:08;;;;;;;13.30;12.80;;;17.90;91.60;;;;;;5032349;28;20452;-55
2022/01/12 09:09:35;;;;;;;14.67;14.07;;;17.90;91.50;;;;;;5032433;28;20448;-58
2022/01/12 09:12:03;;;;;;;13.20;12.70;;;17.90;91.50;;;;;;5032116;28;20445;-58
2022/01/12 09:14:30;;;;;;;13.93;13.37;;;17.90;91.50;;;;;;5032247;28;20814;-58
2022/01/12 09:16:59;;;;;;;14.60;13.90;;;17.80;91.50;;;;;;5032257;28;20449;-58
2022/01/12 09:19:28;;;;;;;14.73;14.10;;;17.80;91.50;;;;;;5032278;28;20456;-58
2022/01/12 09:21:56;;;;;;;15.60;14.90;;;17.80;91.50;;;;;;5031987;28;20481;-55
2022/01/12 09:24:22;;;;;;;14.03;13.33;;;17.70;91.40;;;;;;5031910;28;20827;-53
2022/01/12 09:26:50;;;;;;;13.70;13.20;;;17.70;91.40;;;;;;5032123;28;20445;-57
2022/01/12 09:29:18;;;;;;;13.97;13.37;;;17.60;91.30;;;;;;5032152;28;20472;-52
2022/01/12 09:31:44;;;;;;;13.80;13.30;;;17.60;91.30;;;;;;5031897;28;20477;-54
2022/01/12 09:34:11;;;;;;;14.40;13.50;;;17.50;91.20;;;;;;5032046;28;20452;-54
2022/01/12 09:36:39;;;;;;;13.20;12.60;;;17.50;91.20;;;;;;5032083;28;20811;-57
2022/01/12 09:39:06;;;;;;;14.90;14.20;;;17.50;91.20;;;;;;5031975;28;20465;-55
2022/01/12 09:41:33;;;;;;;13.93;13.43;;;17.50;91.20;;;;;;5031634;28;20538;-56
2022/01/12 09:44:00;;;;;;;13.57;13.03;;;17.50;91.10;;;;;;5031836;28;20472;-58
2022/01/12 09:46:27;;;;;;;14.10;13.40;;;17.50;91.00;;;;;;5031653;28;20445;-56
2022/01/12 09:48:54;;;;;;;13.90;13.40;;;17.50;90.90;;;;;;5031621;28;20880;-53
2022/01/12 09:51:23;;;;;;;13.87;13.37;;;17.60;90.60;;;;;;5031714;28;20860;-57
2022/01/12 09:53:52;;;;;;;12.93;12.43;;;17.60;90.40;;;;;;5031642;28;20441;-57
2022/01/12 09:56:21;;;;;;;13.70;13.27;;;17.60;90.40;;;;;;5031608;28;20453;-57
2022/01/12 09:58:51;;;;;;;14.07;13.57;;;17.60;90.30;;;;;;5031577;28;20998;-57
2022/01/12 10:01:26;;;;;;;13.27;12.80;;;17.60;90.20;;;;;;5031704;28;20513;-53
2022/01/12 10:03:53;;;;;;;14.40;13.80;;;17.50;90.10;;;;;;5031459;28;20444;-55
2022/01/12 10:06:21;;;;;;;13.30;12.70;;;17.50;90.00;;;;;;5031614;28;20452;-54
2022/01/12 10:08:54;;;;;;;13.20;12.80;;;17.50;90.00;;;;;;5031480;28;20511;-56
2022/01/12 10:11:22;;;;;;;13.80;13.30;;;17.50;89.50;;;;;;5031669;28;20778;-55
2022/01/12 10:13:56;;;;;;;14.30;13.80;;;17.50;89.80;;;;;;5031286;28;20453;-57
2022/01/12 10:16:26;;;;;;;13.00;12.50;;;17.50;89.50;;;;;;5031428;28;20451;-53
2022/01/12 10:18:54;;;;;;;14.37;13.67;;;17.40;89.00;;;;;;5031352;28;20472;-56
2022/01/12 10:21:30;;;;;;;16.10;15.33;;;17.40;89.00;;;;;;5031307;28;20485;-55
2022/01/12 10:23:59;;;;;;;13.60;13.10;;;17.50;89.00;;;;;;5031397;28;20449;-58
2022/01/12 10:26:32;;;;;;;14.97;14.27;;;17.50;88.30;;;;;;5031464;28;20468;-56
2022/01/12 10:29:08;;;;;;;14.87;14.17;;;17.50;88.90;;;;;;5031440;28;20496;-58
2022/01/12 10:31:49;;;;;;;14.03;13.43;;;17.40;87.70;;;;;;5031190;28;20459;-57
2022/01/12 10:34:16;;;;;;;13.97;13.47;;;17.40;87.50;;;;;;5031340;28;20449;-57
2022/01/12 10:36:46;;;;;;;14.20;13.80;;;17.40;87.40;;;;;;5033306;28;20453;-57
2022/01/12 10:39:14;;;;;;;14.63;14.13;;;17.40;87.40;;;;;;5035256;28;20469;-58
2022/01/12 10:41:58;;;;;;;14.90;14.23;;;17.30;87.00;;;;;;5035118;28;20484;-55
2022/01/12 10:44:27;;;;;;;15.50;14.90;;;17.30;86.80;;;;;;5035366;28;20977;-58
2022/01/12 10:47:08;;;;;;;15.17;14.57;;;17.20;87.00;;;;;;5034929;28;20444;-58
2022/01/12 10:49:36;;;;;;;15.57;14.87;;;17.30;86.90;;;;;;5035100;28;20453;-56
2022/01/12 10:52:04;;;;;;;15.90;15.23;;;17.20;86.30;;;;;;5034832;28;20446;-53
2022/01/12 10:54:46;;;;;;;15.10;14.60;;;17.20;86.60;;;;;;5034863;28;20469;-53
2022/01/12 10:57:21;;;;;;;14.63;14.13;;;17.20;86.50;;;;;;5034848;28;20441;-53
2022/01/12 10:59:59;;;;;;;14.30;13.80;;;17.20;86.50;;;;;;5034866;28;20436;-53
2022/01/12 11:02:28;;;;;;;14.83;14.13;;;17.20;86.30;;;;;;5034465;28;20488;-57
2022/01/12 11:04:55;;;;;;;15.60;15.00;;;17.20;85.80;;;;;;5034793;28;20445;-55
2022/01/12 11:07:22;;;;;;;14.80;14.30;;;17.20;85.60;;;;;;5034660;28;20492;-58
2022/01/12 11:09:50;;;;;;;14.70;14.10;;;17.20;85.80;;;;;;5034660;28;21454;-58
2022/01/12 11:12:18;;;;;;;15.03;14.43;;;17.20;86.10;;;;;;5034532;28;20452;-54
2022/01/12 11:14:45;;;;;;;16.03;15.23;;;17.20;85.90;;;;;;5034792;28;20445;-57
2022/01/12 11:17:12;;;;;;;14.63;14.13;;;17.30;85.30;;;;;;5034451;28;20503;-55
2022/01/12 11:19:40;;;;;;;14.60;14.20;;;17.30;85.10;;;;;;5034461;28;20926;-56
2022/01/12 11:22:17;;;;;;;15.43;14.83;;;17.40;84.70;;;;;;5034374;28;20485;-58
2022/01/12 11:24:44;;;;;;;13.37;12.97;;;17.40;84.30;;;;;;5034607;28;20445;-55
2022/01/12 11:27:22;;;;;;;14.33;13.83;;;17.40;83.80;;;;;;5034292;28;20456;-53
2022/01/12 11:29:49;;;;;;;13.70;13.20;;;17.40;83.30;;;;;;5034188;28;20824;-54
2022/01/12 11:32:23;;;;;;;14.03;13.53;;;17.40;83.20;;;;;;5033695;28;20503;-56
2022/01/12 11:34:59;;;;;;;14.70;14.20;;;17.40;83.10;;;;;;5034182;28;20445;-58
2022/01/12 11:37:26;;;;;;;13.60;13.13;;;17.40;83.10;;;;;;5033966;28;20507;-55
2022/01/12 11:39:53;;;;;;;14.00;13.50;;;17.40;82.80;;;;;;5034063;28;20476;-52
2022/01/12 11:42:19;;;;;;;14.00;13.30;;;17.30;82.50;;;;;;5033863;28;20484;-53
2022/01/12 11:44:49;;;;;;;13.73;13.23;;;17.40;83.30;;;;;;5034069;28;20977;-54
2022/01/12 11:47:16;;;;;;;13.63;13.23;;;17.30;82.20;;;;;;5032854;28;20830;-54
2022/01/12 11:49:46;;;;;;;14.70;14.20;;;17.40;82.10;;;;;;5033799;28;20460;-52
2022/01/12 11:52:17;;;;;;;13.20;12.70;;;17.30;81.70;;;;;;5033761;28;20445;-52
2022/01/12 11:54:47;;;;;;;13.40;12.90;;;17.30;81.80;;;;;;5033846;28;20455;-56
2022/01/12 11:57:18;;;;;;;13.10;12.70;;;17.30;81.80;;;;;;5033812;28;20457;-57
2022/01/12 11:59:54;;;;;;;15.10;14.30;;;17.30;81.50;;;;;;5033711;28;20456;-57
2022/01/12 12:02:32;;;;;;;13.83;13.43;;;17.30;81.30;;;;;;5033628;28;20480;-56
2022/01/12 12:05:00;;;;;;;17.70;16.47;;;17.30;81.10;;;;;;5033697;28;21000;-57
2022/01/12 12:07:28;;;;;;;15.77;14.73;;;17.30;80.70;;;;;;5033505;28;20472;-52
2022/01/12 12:09:57;;;;;;;15.17;14.57;;;17.30;80.90;;;;;;5033735;28;20444;-55
2022/01/12 12:12:27;;;;;;;13.43;12.93;;;17.30;81.20;;;;;;5033371;28;20962;-56
2022/01/12 12:14:57;;;;;;;15.50;14.80;;;17.30;81.00;;;;;;5033538;28;20448;-51
2022/01/12 12:17:25;;;;;;;14.00;13.50;;;17.20;80.20;;;;;;5033370;28;20497;-52
2022/01/12 12:19:53;;;;;;;13.77;13.23;;;17.20;79.90;;;;;;5033429;28;20444;-53
2022/01/12 12:22:22;;;;;;;13.60;13.10;;;17.20;80.10;;;;;;5033211;28;21025;-52
2022/01/12 12:24:54;;;;;;;15.10;14.50;;;17.20;79.90;;;;;;5033338;28;20449;-58
2022/01/12 12:27:22;;;;;;;13.90;13.50;;;17.20;79.80;;;;;;5033311;28;20469;-54
2022/01/12 12:29:50;;;;;;;14.33;13.80;;;17.10;79.80;;;;;;5033068;28;20962;-56
2022/01/12 12:32:20;;;;;;;14.40;13.90;;;17.10;79.70;;;;;;5032974;28;20448;-56
2022/01/12 12:34:48;;;;;;;14.60;14.00;;;17.10;79.60;;;;;;5033019;28;20449;-54
2022/01/12 12:37:16;;;;;;;14.50;14.00;;;17.10;79.80;;;;;;5033019;28;20507;-56
2022/01/12 12:39:45;;;;;;;14.17;13.60;;;17.10;79.70;;;;;;5033006;28;20445;-54
2022/01/12 12:42:17;;;;;;;13.70;13.20;;;17.10;79.80;;;;;;5032680;28;20523;-57
2022/01/12 12:44:44;;;;;;;15.13;14.53;;;17.20;80.20;;;;;;5032744;28;20448;-56
2022/01/12 12:47:13;;;;;;;14.27;13.77;;;17.40;79.70;;;;;;5032733;28;20452;-57
2022/01/12 12:49:52;;;;;;;14.20;13.70;;;17.50;79.00;;;;;;5032866;28;20442;-56
2022/01/12 12:52:24;;;;;;;13.67;13.17;;;17.60;78.20;;;;;;5032583;28;20452;-53
2022/01/12 12:54:51;;;;;;;15.53;14.77;;;17.60;77.40;;;;;;5032623;28;20483;-55
2022/01/12 12:57:21;;;;;;;15.73;15.10;;;17.70;76.70;;;;;;5032780;28;20464;-56
2022/01/12 12:59:48;;;;;;;15.47;14.87;;;17.80;76.00;;;;;;5032362;28;20832;-58
2022/01/12 13:02:15;;;;;;;15.60;14.73;;;17.80;75.40;;;;;;5032387;28;20535;-52
2022/01/12 13:04:41;;;;;;;16.00;15.30;;;17.90;74.90;;;;;;5032614;28;20449;-53
2022/01/12 13:07:15;;;;;;;14.70;14.10;;;17.80;74.20;;;;;;5032288;28;20818;-54
2022/01/12 13:09:41;;;;;;;14.93;14.33;;;17.90;74.10;;;;;;5032470;28;20452;-57
2022/01/12 13:12:09;;;;;;;15.80;15.00;;;17.90;73.60;;;;;;5032257;28;20448;-55
2022/01/12 13:14:43;;;;;;;17.07;16.10;;;17.90;72.70;;;;;;5032288;28;20865;-57
2022/01/12 13:17:10;;;;;;;14.77;14.17;;;18.00;72.40;;;;;;5032324;28;20850;-58
2022/01/12 13:22:26;;;;;;;13.10;12.60;;;17.90;71.50;;;;;;5031711;28;20477;-54
2022/01/12 13:24:53;;;;;;;14.50;13.90;;;18.00;71.70;;;;;;5032183;28;20791;-52
2022/01/12 13:27:21;;;;;;;14.23;13.83;;;18.00;71.60;;;;;;5032169;28;20465;-57
2022/01/12 13:29:48;;;;;;;14.90;14.33;;;18.00;71.40;;;;;;5032086;28;20449;-53
2022/01/12 13:32:16;;;;;;;15.33;14.63;;;17.90;71.10;;;;;;5031758;28;20444;-57
2022/01/12 13:34:53;;;;;;;15.33;14.53;;;17.90;70.80;;;;;;5031988;28;20792;-58
2022/01/12 13:37:20;;;;;;;14.37;13.77;;;17.90;70.80;;;;;;5031898;28;20472;-53